Time;durP1;ratioP1;P1;durP2;ratioP2;P2;SDS_P1;SDS_P2;PMS_P1;PMS_P2;Temp;Humidity;BMP_temperature;BMP_pressure;BME280_temperature;BME280_humidity;BME280_pressure;Samples;Min_cycle;Max_cycle;Signal;HPM_P1;HPM_P2
2023/10/06 00:03:05;;;;;;;11.18;4.50;;;13.80;99.90;;;;;;5035861;28;20225;-77
2023/10/06 00:05:33;;;;;;;8.85;3.95;;;13.90;99.90;;;;;;5028339;28;20209;-77
2023/10/06 00:08:05;;;;;;;7.68;3.83;;;13.90;99.90;;;;;;5030387;28;20212;-77
2023/10/06 00:10:32;;;;;;;9.10;4.07;;;13.90;99.90;;;;;;5029385;28;20202;-79
2023/10/06 00:13:04;;;;;;;7.18;4.03;;;13.90;99.90;;;;;;5031866;28;20233;-79
2023/10/06 00:15:38;;;;;;;7.70;3.58;;;13.90;99.90;;;;;;5051559;28;20221;-79
2023/10/06 00:18:09;;;;;;;4.45;3.45;;;13.90;99.90;;;;;;5027927;28;20205;-79
2023/10/06 00:20:45;;;;;;;8.40;3.90;;;13.80;99.90;;;;;;5053280;28;20198;-77
2023/10/06 00:23:14;;;;;;;7.95;4.25;;;13.90;99.90;;;;;;5053162;28;20217;-77
2023/10/06 00:25:43;;;;;;;6.97;3.97;;;13.80;99.90;;;;;;5045954;28;20199;-77
2023/10/06 00:28:18;;;;;;;8.32;4.28;;;13.80;99.90;;;;;;5050171;28;20206;-78
2023/10/06 00:30:47;;;;;;;8.63;4.30;;;13.80;99.90;;;;;;5043099;28;20205;-78
2023/10/06 00:33:15;;;;;;;8.90;4.85;;;13.80;99.90;;;;;;5045292;28;20206;-77
2023/10/06 00:35:44;;;;;;;12.70;4.55;;;13.80;99.90;;;;;;5062489;28;20706;-78
2023/10/06 00:38:16;;;;;;;10.65;4.82;;;13.80;99.90;;;;;;5047406;28;20202;-77
2023/10/06 00:40:51;;;;;;;10.27;4.50;;;13.80;99.90;;;;;;5066863;28;20205;-78
2023/10/06 00:43:34;;;;;;;8.55;4.18;;;13.80;99.90;;;;;;5040203;28;20236;-77
2023/10/06 00:46:04;;;;;;;8.65;3.72;;;13.60;99.90;;;;;;5051244;28;20205;-81
2023/10/06 00:48:32;;;;;;;5.22;3.55;;;13.70;99.90;;;;;;5051018;28;20560;-81
2023/10/06 00:51:04;;;;;;;8.70;3.53;;;13.80;99.90;;;;;;5031796;28;20222;-79
2023/10/06 00:53:32;;;;;;;9.13;4.20;;;13.80;99.90;;;;;;5047844;28;20218;-79
2023/10/06 00:56:10;;;;;;;6.40;3.72;;;13.70;99.90;;;;;;5053018;28;20190;-81
2023/10/06 00:58:41;;;;;;;7.25;3.58;;;13.60;99.90;;;;;;5033872;28;20199;-80
2023/10/06 01:01:12;;;;;;;7.15;4.38;;;13.70;99.90;;;;;;5036536;28;20206;-79
2023/10/06 01:03:41;;;;;;;8.02;4.05;;;13.70;99.90;;;;;;5031686;28;20227;-80
2023/10/06 01:06:13;;;;;;;10.25;4.25;;;13.70;99.90;;;;;;5043563;28;20195;-79
2023/10/06 01:08:45;;;;;;;7.95;3.95;;;13.70;99.90;;;;;;5029230;28;20198;-79
2023/10/06 01:11:17;;;;;;;7.68;3.50;;;13.70;99.90;;;;;;5025299;28;20199;-79
2023/10/06 01:13:55;;;;;;;8.93;4.10;;;13.70;99.90;;;;;;5029628;28;20218;-80
2023/10/06 01:16:26;;;;;;;6.55;4.15;;;13.70;99.90;;;;;;5032754;28;20214;-80
2023/10/06 01:19:00;;;;;;;9.77;4.20;;;13.70;99.90;;;;;;5031419;28;20225;-79
2023/10/06 01:21:29;;;;;;;6.50;3.70;;;13.70;99.90;;;;;;5053267;28;20195;-79
2023/10/06 01:24:00;;;;;;;8.65;4.10;;;13.70;99.90;;;;;;5023355;28;20219;-79
2023/10/06 01:26:27;;;;;;;10.35;4.47;;;13.70;99.90;;;;;;5030338;28;20194;-80
2023/10/06 01:28:56;;;;;;;7.80;4.60;;;13.70;99.90;;;;;;5024072;28;20203;-79
2023/10/06 01:31:24;;;;;;;7.55;3.78;;;13.60;99.90;;;;;;5024210;28;20649;-79
2023/10/06 01:33:52;;;;;;;8.02;3.97;;;13.60;99.90;;;;;;5027414;28;20227;-80
2023/10/06 01:36:22;;;;;;;12.00;4.10;;;13.60;99.90;;;;;;5049575;28;20218;-79
2023/10/06 01:38:49;;;;;;;7.22;3.55;;;13.60;99.90;;;;;;5053736;28;20193;-80
2023/10/06 01:41:20;;;;;;;8.52;3.95;;;13.60;99.90;;;;;;5036817;28;20195;-78
2023/10/06 01:43:48;;;;;;;7.20;4.28;;;13.60;99.90;;;;;;5040619;28;20237;-80
2023/10/06 01:46:16;;;;;;;9.00;4.13;;;13.60;99.90;;;;;;5046344;28;20194;-78
2023/10/06 01:48:43;;;;;;;7.93;3.78;;;13.60;99.90;;;;;;5044913;28;20217;-80
2023/10/06 01:51:15;;;;;;;11.13;4.00;;;13.60;99.90;;;;;;5054126;28;20198;-80
2023/10/06 01:53:43;;;;;;;7.90;3.92;;;13.50;99.90;;;;;;5040187;28;20222;-79
2023/10/06 01:56:10;;;;;;;8.38;4.00;;;13.50;99.90;;;;;;5032008;28;20221;-78
2023/10/06 01:58:39;;;;;;;8.30;4.07;;;13.50;99.90;;;;;;5028195;28;20218;-80
2023/10/06 02:01:07;;;;;;;6.90;4.07;;;13.60;99.90;;;;;;5025314;28;20206;-80
2023/10/06 02:03:38;;;;;;;8.48;3.88;;;13.50;99.90;;;;;;5027532;28;20225;-80
2023/10/06 02:06:13;;;;;;;8.00;4.10;;;13.60;99.90;;;;;;5034520;28;20206;-80
2023/10/06 02:08:43;;;;;;;6.55;3.50;;;13.60;99.90;;;;;;5034238;28;20202;-78
2023/10/06 02:11:12;;;;;;;7.93;3.67;;;13.60;99.90;;;;;;5031330;28;20199;-80
2023/10/06 02:13:41;;;;;;;9.50;4.03;;;13.60;99.90;;;;;;5032092;28;20219;-80
2023/10/06 02:16:09;;;;;;;9.65;4.07;;;13.50;99.90;;;;;;5031205;28;20210;-80
2023/10/06 02:18:40;;;;;;;9.82;3.90;;;13.50;99.90;;;;;;5038631;28;20247;-80
2023/10/06 02:21:13;;;;;;;6.18;4.20;;;13.50;99.90;;;;;;5034694;28;20210;-80
2023/10/06 02:23:42;;;;;;;6.68;3.95;;;13.40;99.90;;;;;;5025736;28;20229;-79
2023/10/06 02:26:12;;;;;;;6.25;3.50;;;13.50;99.90;;;;;;5033590;28;20210;-80
2023/10/06 02:28:48;;;;;;;7.07;3.72;;;13.40;99.90;;;;;;5020863;28;20207;-77
2023/10/06 02:31:16;;;;;;;8.52;3.72;;;13.50;99.90;;;;;;5029463;28;20201;-79
2023/10/06 02:33:48;;;;;;;9.07;3.78;;;13.50;99.90;;;;;;5053761;28;20218;-79
2023/10/06 02:36:22;;;;;;;8.43;3.67;;;13.50;99.90;;;;;;5024665;28;20206;-80
2023/10/06 02:38:50;;;;;;;9.70;4.15;;;13.40;99.90;;;;;;5020000;28;20668;-80
2023/10/06 02:41:19;;;;;;;7.22;4.13;;;13.40;99.90;;;;;;5028188;28;20210;-80
2023/10/06 02:43:49;;;;;;;7.90;3.67;;;13.40;99.90;;;;;;5022336;28;20230;-80
2023/10/06 02:46:20;;;;;;;6.60;3.85;;;13.40;99.90;;;;;;5028985;28;20202;-80
2023/10/06 02:48:51;;;;;;;6.38;3.92;;;13.40;99.90;;;;;;5027314;28;20198;-80
2023/10/06 02:51:28;;;;;;;8.75;4.07;;;13.40;99.90;;;;;;5046509;28;20195;-80
2023/10/06 02:54:09;;;;;;;8.20;3.70;;;13.40;99.90;;;;;;5043091;28;20217;-80
2023/10/06 02:56:38;;;;;;;7.15;4.40;;;13.40;99.90;;;;;;5046879;28;20194;-80
2023/10/06 02:59:20;;;;;;;6.43;3.95;;;13.40;99.90;;;;;;5028077;28;20195;-79
2023/10/06 03:01:52;;;;;;;7.47;4.05;;;13.30;99.90;;;;;;5025679;28;20210;-80
2023/10/06 03:04:22;;;;;;;7.28;4.05;;;13.40;99.90;;;;;;5028826;28;20203;-80
2023/10/06 03:06:53;;;;;;;5.95;3.05;;;13.40;99.90;;;;;;5021793;28;20196;-80
2023/10/06 03:09:27;;;;;;;6.57;3.90;;;13.40;99.90;;;;;;5026695;28;20195;-80
2023/10/06 03:11:58;;;;;;;7.82;3.88;;;13.40;99.90;;;;;;5048757;28;20189;-80
2023/10/06 03:14:38;;;;;;;5.72;3.17;;;13.40;99.90;;;;;;5030836;28;20198;-79
2023/10/06 03:17:13;;;;;;;10.02;4.15;;;13.40;99.90;;;;;;5026482;28;20269;-80
2023/10/06 03:19:41;;;;;;;8.15;3.88;;;13.30;99.90;;;;;;5034170;28;20194;-79
2023/10/06 03:22:12;;;;;;;8.20;4.05;;;13.30;99.90;;;;;;5036411;28;20225;-80
2023/10/06 03:24:52;;;;;;;8.40;3.92;;;13.30;99.90;;;;;;5052835;28;20182;-80
2023/10/06 03:27:23;;;;;;;7.47;3.95;;;13.30;99.90;;;;;;5029894;28;20545;-80
2023/10/06 03:29:54;;;;;;;7.07;3.83;;;13.40;99.90;;;;;;5027693;28;20206;-80
2023/10/06 03:32:32;;;;;;;11.25;3.92;;;13.30;99.90;;;;;;5032530;28;20233;-80
2023/10/06 03:35:11;;;;;;;6.65;3.80;;;13.30;99.90;;;;;;5024196;28;20190;-80
2023/10/06 03:37:51;;;;;;;8.10;3.42;;;13.30;99.90;;;;;;5026864;28;20221;-80
2023/10/06 03:40:30;;;;;;;7.22;3.97;;;13.30;99.90;;;;;;5034130;28;20659;-80
2023/10/06 03:43:04;;;;;;;8.38;3.65;;;13.30;99.90;;;;;;5023977;28;20310;-80
2023/10/06 03:45:34;;;;;;;6.75;3.47;;;13.30;99.90;;;;;;5032257;28;20201;-80
2023/10/06 03:48:12;;;;;;;5.90;3.35;;;13.30;99.90;;;;;;5024898;28;20193;-80
2023/10/06 03:50:42;;;;;;;7.05;3.58;;;13.30;99.90;;;;;;5029504;28;20199;-80
2023/10/06 03:53:11;;;;;;;5.40;3.00;;;13.30;99.90;;;;;;5024628;28;20226;-78
2023/10/06 03:55:40;;;;;;;4.82;3.15;;;13.30;99.90;;;;;;5040475;28;20209;-80
2023/10/06 03:58:09;;;;;;;7.18;3.88;;;13.30;99.90;;;;;;5036039;28;20210;-80
2023/10/06 04:00:40;;;;;;;6.10;3.50;;;13.30;99.90;;;;;;5021694;28;20210;-80
2023/10/06 04:03:13;;;;;;;9.45;3.83;;;13.30;99.90;;;;;;5025865;28;20214;-79
2023/10/06 04:05:41;;;;;;;6.93;3.92;;;13.30;99.90;;;;;;5020977;28;20206;-80
2023/10/06 04:08:14;;;;;;;9.93;3.92;;;13.30;99.90;;;;;;5029105;28;20195;-80
2023/10/06 04:10:42;;;;;;;8.40;3.83;;;13.20;99.90;;;;;;5020850;28;20209;-80
2023/10/06 04:13:10;;;;;;;7.25;3.75;;;13.10;99.90;;;;;;5028972;28;20214;-79
2023/10/06 04:15:43;;;;;;;6.50;3.90;;;13.10;99.90;;;;;;5026065;28;20198;-80
2023/10/06 04:18:24;;;;;;;6.13;3.58;;;13.10;99.90;;;;;;5030453;28;20222;-80
2023/10/06 04:20:53;;;;;;;5.78;3.70;;;13.10;99.90;;;;;;5045389;28;20202;-80
2023/10/06 04:23:22;;;;;;;5.90;3.45;;;13.20;99.90;;;;;;5039801;28;20222;-79
2023/10/06 04:25:54;;;;;;;6.63;4.00;;;13.20;99.90;;;;;;5028829;28;20515;-80
2023/10/06 04:28:25;;;;;;;5.20;3.67;;;13.20;99.90;;;;;;5025660;28;20254;-80
2023/10/06 04:30:57;;;;;;;7.45;3.80;;;13.10;99.90;;;;;;5043708;28;20198;-80
2023/10/06 04:33:28;;;;;;;6.80;3.40;;;13.10;99.90;;;;;;5030105;28;20564;-79
2023/10/06 04:35:59;;;;;;;5.80;3.50;;;13.10;99.90;;;;;;5029880;28;20202;-79
2023/10/06 04:38:29;;;;;;;7.53;3.95;;;13.10;99.90;;;;;;5022989;28;20226;-79
2023/10/06 04:40:56;;;;;;;7.13;3.80;;;13.10;99.90;;;;;;5023688;28;20213;-79
2023/10/06 04:43:24;;;;;;;7.40;3.50;;;13.10;99.90;;;;;;5017217;28;20222;-79
2023/10/06 04:45:55;;;;;;;7.47;4.38;;;13.10;99.90;;;;;;5026403;28;20206;-79
2023/10/06 04:48:22;;;;;;;8.73;3.47;;;13.00;99.90;;;;;;5024985;28;20198;-78
2023/10/06 04:50:51;;;;;;;5.18;3.60;;;13.00;99.90;;;;;;5033373;28;20653;-79
2023/10/06 04:53:19;;;;;;;10.88;4.40;;;13.00;99.90;;;;;;5032508;28;20219;-79
2023/10/06 04:55:46;;;;;;;6.85;3.53;;;13.00;99.90;;;;;;5025973;28;20581;-79
2023/10/06 04:58:15;;;;;;;7.35;3.42;;;13.00;99.90;;;;;;5037645;28;20222;-79
2023/10/06 05:00:42;;;;;;;4.55;3.78;;;13.00;99.90;;;;;;5031752;28;20661;-79
2023/10/06 05:03:11;;;;;;;6.43;4.10;;;13.00;99.90;;;;;;5028041;28;20222;-77
2023/10/06 05:05:40;;;;;;;4.80;3.58;;;13.00;99.90;;;;;;5034632;28;20206;-79
2023/10/06 05:08:09;;;;;;;7.40;4.55;;;13.10;99.90;;;;;;5030486;28;20218;-79
2023/10/06 05:10:39;;;;;;;12.20;4.97;;;13.00;99.90;;;;;;5045693;28;20202;-78
2023/10/06 05:13:07;;;;;;;6.88;4.07;;;13.00;99.90;;;;;;5055825;28;20215;-80
2023/10/06 05:15:36;;;;;;;6.28;3.80;;;13.10;99.90;;;;;;5034412;28;20211;-79
2023/10/06 05:18:05;;;;;;;7.25;3.70;;;13.00;99.90;;;;;;5049503;28;20229;-79
2023/10/06 05:20:35;;;;;;;7.53;3.63;;;13.00;99.90;;;;;;5037910;28;20196;-79
2023/10/06 05:23:06;;;;;;;7.10;3.50;;;13.00;99.90;;;;;;5038583;28;20581;-79
2023/10/06 05:25:34;;;;;;;5.45;3.58;;;13.00;99.90;;;;;;5032906;28;20209;-80
2023/10/06 05:28:02;;;;;;;10.13;3.50;;;13.00;99.90;;;;;;5021879;28;20195;-77
2023/10/06 05:30:33;;;;;;;8.70;3.72;;;13.00;99.90;;;;;;5048098;28;20209;-79
2023/10/06 05:33:13;;;;;;;8.85;3.42;;;13.00;99.90;;;;;;5055251;28;20222;-79
2023/10/06 05:36:10;;;;;;;4.40;3.28;;;13.00;99.90;;;;;;5055339;28;20206;-80
2023/10/06 05:38:42;;;;;;;11.45;3.88;;;13.00;99.90;;;;;;5029893;28;20223;-80
2023/10/06 05:41:11;;;;;;;6.20;3.53;;;13.10;99.90;;;;;;5033411;28;20213;-79
2023/10/06 05:43:39;;;;;;;5.90;3.60;;;13.00;99.90;;;;;;5033826;28;20236;-77
2023/10/06 05:46:06;;;;;;;7.95;3.33;;;13.10;99.90;;;;;;5046146;28;20215;-78
2023/10/06 05:48:34;;;;;;;7.40;3.75;;;13.10;99.90;;;;;;5053896;28;20179;-77
2023/10/06 05:51:08;;;;;;;5.72;3.50;;;13.10;99.90;;;;;;5038172;28;20211;-76
2023/10/06 05:53:41;;;;;;;7.68;4.07;;;13.10;99.90;;;;;;5037326;28;20230;-79
2023/10/06 05:56:09;;;;;;;6.03;3.90;;;13.10;99.90;;;;;;5038985;28;20210;-79
2023/10/06 05:58:37;;;;;;;8.82;3.80;;;13.10;99.90;;;;;;5059781;28;20211;-76
2023/10/06 06:01:09;;;;;;;6.55;3.95;;;13.10;99.90;;;;;;5054763;28;20205;-78
2023/10/06 06:03:44;;;;;;;7.45;3.58;;;13.20;99.90;;;;;;5030945;28;20229;-79
2023/10/06 06:06:15;;;;;;;4.75;3.28;;;13.20;99.90;;;;;;5032562;28;20201;-79
2023/10/06 06:08:47;;;;;;;6.20;3.63;;;13.20;99.90;;;;;;5054205;28;20194;-78
2023/10/06 06:11:19;;;;;;;7.15;3.35;;;13.20;99.90;;;;;;5023081;28;20205;-79
2023/10/06 06:13:47;;;;;;;9.13;4.22;;;13.20;99.90;;;;;;5046945;28;20223;-79
2023/10/06 06:16:16;;;;;;;7.63;3.45;;;13.30;99.90;;;;;;5033727;28;20205;-79
2023/10/06 06:18:44;;;;;;;5.22;3.55;;;13.30;99.90;;;;;;5032745;28;20219;-79
2023/10/06 06:21:12;;;;;;;5.47;4.13;;;13.20;99.90;;;;;;5045970;28;20210;-82
2023/10/06 06:23:39;;;;;;;9.68;3.53;;;13.30;99.90;;;;;;5033240;28;20239;-77
2023/10/06 06:26:08;;;;;;;6.43;3.25;;;13.30;99.90;;;;;;5025529;28;20199;-78
2023/10/06 06:28:36;;;;;;;8.82;3.47;;;13.40;99.90;;;;;;5028221;28;20211;-78
2023/10/06 06:31:04;;;;;;;8.98;3.65;;;13.50;99.90;;;;;;5019690;28;20213;-80
2023/10/06 06:33:32;;;;;;;5.90;3.22;;;13.50;99.90;;;;;;5034636;28;20218;-77
2023/10/06 06:36:00;;;;;;;6.07;3.10;;;13.50;99.90;;;;;;5045040;28;20221;-77
2023/10/06 06:38:28;;;;;;;6.57;3.22;;;13.60;99.90;;;;;;5032324;28;20202;-78
2023/10/06 06:40:58;;;;;;;5.40;3.65;;;13.60;99.90;;;;;;5027355;28;20210;-79
2023/10/06 06:43:27;;;;;;;4.40;3.60;;;13.70;99.90;;;;;;5027045;28;20237;-78
2023/10/06 06:45:55;;;;;;;6.35;3.20;;;13.80;99.90;;;;;;5019183;28;20207;-79
2023/10/06 06:48:22;;;;;;;7.90;4.07;;;13.80;99.90;;;;;;5031392;28;20210;-78
2023/10/06 06:50:49;;;;;;;8.63;3.70;;;13.80;99.90;;;;;;5027673;28;20577;-78
2023/10/06 06:53:18;;;;;;;6.80;3.70;;;13.80;99.90;;;;;;5020310;28;20210;-79
2023/10/06 06:55:45;;;;;;;5.85;3.50;;;13.80;99.90;;;;;;5027997;28;20609;-78
2023/10/06 06:58:16;;;;;;;6.85;3.75;;;13.80;99.90;;;;;;5034885;28;20213;-78
2023/10/06 07:00:47;;;;;;;7.43;3.38;;;13.80;99.90;;;;;;5035911;28;20222;-78
2023/10/06 07:03:15;;;;;;;6.32;3.20;;;13.90;99.90;;;;;;5022832;28;20222;-78
2023/10/06 07:05:43;;;;;;;6.57;3.50;;;13.90;99.90;;;;;;5035224;28;20214;-78
2023/10/06 07:08:11;;;;;;;7.88;3.05;;;13.90;99.90;;;;;;5033734;28;20552;-79
2023/10/06 07:10:46;;;;;;;6.13;3.60;;;14.00;99.90;;;;;;5036373;28;20190;-79
2023/10/06 07:13:13;;;;;;;8.45;3.80;;;14.10;99.90;;;;;;5024866;28;20221;-79
2023/10/06 07:15:41;;;;;;;8.63;3.60;;;14.00;99.90;;;;;;5034855;28;20206;-79
2023/10/06 07:18:10;;;;;;;6.55;3.08;;;14.10;99.90;;;;;;5034469;28;20297;-79
2023/10/06 07:20:37;;;;;;;6.80;3.45;;;14.20;99.90;;;;;;5033587;28;20226;-79
2023/10/06 07:23:05;;;;;;;5.95;3.17;;;14.30;99.90;;;;;;5053075;28;20576;-80
2023/10/06 07:25:32;;;;;;;6.65;3.83;;;14.40;99.90;;;;;;5029806;28;20202;-79
2023/10/06 07:28:00;;;;;;;6.13;2.75;;;14.40;99.90;;;;;;5029728;28;20202;-79
2023/10/06 07:30:29;;;;;;;5.78;3.20;;;14.40;99.90;;;;;;5029107;28;20210;-78
2023/10/06 07:32:59;;;;;;;6.38;2.97;;;14.50;99.90;;;;;;5029934;28;20618;-79
2023/10/06 07:35:37;;;;;;;7.18;3.17;;;14.50;99.90;;;;;;5027995;28;20206;-79
2023/10/06 07:38:04;;;;;;;8.20;2.78;;;14.50;99.90;;;;;;5034780;28;20206;-79
2023/10/06 07:40:32;;;;;;;7.25;3.00;;;14.50;99.90;;;;;;5038561;28;20568;-80
2023/10/06 07:43:01;;;;;;;7.75;3.22;;;14.50;99.90;;;;;;5023995;28;20231;-79
2023/10/06 07:45:30;;;;;;;6.50;3.13;;;14.50;99.90;;;;;;5029842;28;20206;-80
2023/10/06 07:47:57;;;;;;;8.50;3.20;;;14.60;99.90;;;;;;5026327;28;20245;-79
2023/10/06 07:50:28;;;;;;;6.45;3.17;;;14.60;99.90;;;;;;5024408;28;20206;-79
2023/10/06 07:52:56;;;;;;;5.15;2.92;;;14.70;99.90;;;;;;5071274;22;20233;-77
2023/10/06 07:55:24;;;;;;;8.70;2.90;;;14.80;99.90;;;;;;5009204;28;20218;-77
2023/10/06 07:57:51;;;;;;;7.10;3.05;;;14.80;99.90;;;;;;5027757;28;20210;-77
2023/10/06 08:00:27;;;;;;;4.75;2.95;;;14.90;99.90;;;;;;5040192;28;20213;-77
2023/10/06 08:02:54;;;;;;;7.60;3.25;;;14.90;99.90;;;;;;5021052;28;20199;-78
2023/10/06 08:05:22;;;;;;;4.18;2.58;;;14.90;99.90;;;;;;4995656;28;20579;-78
2023/10/06 08:07:52;;;;;;;4.72;2.75;;;14.90;99.90;;;;;;4991537;28;20212;-78
2023/10/06 08:10:20;;;;;;;6.00;2.97;;;14.90;99.90;;;;;;5013932;28;20191;-78
2023/10/06 08:12:50;;;;;;;4.38;2.92;;;14.90;99.90;;;;;;4998720;28;20203;-78
2023/10/06 08:15:18;;;;;;;4.57;2.95;;;14.90;99.90;;;;;;5019615;28;20223;-78
2023/10/06 08:17:46;;;;;;;9.93;3.72;;;14.90;99.90;;;;;;5011300;28;20241;-78
2023/10/06 08:20:15;;;;;;;7.80;2.55;;;14.90;99.90;;;;;;5015732;28;20228;-78
2023/10/06 08:22:46;;;;;;;7.72;3.35;;;15.00;99.90;;;;;;5014677;28;20207;-78
2023/10/06 08:25:15;;;;;;;9.25;3.08;;;15.00;99.90;;;;;;5013021;28;20689;-78
2023/10/06 08:27:43;;;;;;;7.13;2.60;;;15.00;99.90;;;;;;5031118;28;20196;-78
2023/10/06 08:30:16;;;;;;;6.32;3.00;;;15.10;99.90;;;;;;5000644;28;20197;-78
2023/10/06 08:32:44;;;;;;;4.90;2.50;;;15.20;99.90;;;;;;5023176;28;20216;-78
2023/10/06 08:35:13;;;;;;;5.72;3.28;;;15.30;99.90;;;;;;4996709;28;20231;-78
2023/10/06 08:37:42;;;;;;;6.55;2.78;;;15.30;99.90;;;;;;5032355;28;20215;-78
2023/10/06 08:40:16;;;;;;;8.30;3.05;;;15.30;99.90;;;;;;5030650;28;20219;-78
2023/10/06 08:42:52;;;;;;;4.70;3.20;;;15.40;99.90;;;;;;5019557;28;20649;-78
2023/10/06 08:45:21;;;;;;;7.28;3.60;;;15.40;99.90;;;;;;5004358;28;22490;-78
2023/10/06 08:47:50;;;;;;;7.28;3.38;;;15.50;99.90;;;;;;5029896;28;20569;-78
2023/10/06 08:50:22;;;;;;;6.05;3.28;;;15.40;99.90;;;;;;5014930;28;20200;-78
2023/10/06 08:52:51;;;;;;;5.47;3.13;;;15.50;99.90;;;;;;5009988;28;20205;-78
2023/10/06 08:55:19;;;;;;;8.52;3.30;;;15.50;99.90;;;;;;5011954;28;20232;-78
2023/10/06 08:57:47;;;;;;;8.60;3.30;;;15.60;99.90;;;;;;5017623;28;20209;-78
2023/10/06 09:00:18;;;;;;;8.00;3.42;;;15.70;99.90;;;;;;5005011;28;20204;-78
2023/10/06 09:02:47;;;;;;;7.78;3.38;;;15.70;99.90;;;;;;5022929;28;20197;-78
2023/10/06 09:05:15;;;;;;;8.02;3.58;;;15.70;99.90;;;;;;5018766;28;20235;-78
2023/10/06 09:08:00;;;;;;;9.30;3.50;;;15.80;99.90;;;;;;5002174;28;20685;-78
2023/10/06 09:10:30;;;;;;;9.73;3.70;;;15.70;99.90;;;;;;4990438;28;20196;-78
2023/10/06 09:13:02;;;;;;;6.57;3.25;;;15.80;99.90;;;;;;5021623;28;20200;-79
2023/10/06 09:15:31;;;;;;;5.20;3.20;;;16.00;99.90;;;;;;4994017;28;20197;-78
2023/10/06 09:18:00;;;;;;;7.22;3.45;;;16.10;99.90;;;;;;5001556;28;20201;-78
2023/10/06 09:20:32;;;;;;;7.10;3.63;;;16.10;99.90;;;;;;5008987;28;20219;-78
2023/10/06 09:23:00;;;;;;;8.63;3.35;;;16.10;99.90;;;;;;4997120;28;20201;-78
2023/10/06 09:25:29;;;;;;;10.20;4.13;;;16.10;99.90;;;;;;5009105;28;20668;-78
2023/10/06 09:28:08;;;;;;;6.60;3.13;;;16.10;99.90;;;;;;5005592;28;20197;-78
2023/10/06 09:30:56;;;;;;;5.93;3.20;;;16.30;99.90;;;;;;5011292;28;20188;-77
2023/10/06 09:33:26;;;;;;;9.55;3.45;;;16.40;99.90;;;;;;5014652;28;20219;-78
2023/10/06 09:36:11;;;;;;;6.10;3.33;;;16.40;99.90;;;;;;5016207;28;20208;-78
2023/10/06 09:38:45;;;;;;;5.47;3.10;;;16.40;99.90;;;;;;5031742;28;20681;-78
2023/10/06 09:41:25;;;;;;;6.90;3.30;;;16.50;99.90;;;;;;5020360;28;20223;-78
2023/10/06 09:43:54;;;;;;;6.35;3.45;;;16.60;99.90;;;;;;5027664;28;20226;-78
2023/10/06 09:46:34;;;;;;;7.70;3.10;;;16.60;99.90;;;;;;4998397;28;20546;-78
2023/10/06 09:49:05;;;;;;;8.77;3.42;;;16.80;99.90;;;;;;4997321;28;20681;-78
2023/10/06 09:51:34;;;;;;;7.75;3.03;;;16.80;99.90;;;;;;5022170;28;20687;-79
2023/10/06 09:54:04;;;;;;;7.03;3.60;;;17.10;99.90;;;;;;5016780;28;20247;-78
2023/10/06 09:56:33;;;;;;;9.55;3.75;;;17.10;99.90;;;;;;4996425;28;20192;-78
2023/10/06 09:59:01;;;;;;;6.32;3.25;;;17.10;99.90;;;;;;4999990;28;20660;-79
2023/10/06 10:01:45;;;;;;;6.32;3.17;;;17.10;99.90;;;;;;5025752;28;20223;-78
2023/10/06 10:04:13;;;;;;;9.95;3.33;;;17.30;99.90;;;;;;5022354;28;20225;-78
2023/10/06 10:07:04;;;;;;;7.07;2.75;;;17.50;99.90;;;;;;5010188;28;20224;-78
2023/10/06 10:09:34;;;;;;;5.47;3.30;;;17.30;99.90;;;;;;4996234;28;20191;-78
2023/10/06 10:12:32;;;;;;;7.80;3.10;;;17.30;99.90;;;;;;5003716;28;20216;-78
2023/10/06 10:15:16;;;;;;;6.68;3.88;;;17.20;99.90;;;;;;5022334;28;20720;-78
2023/10/06 10:17:53;;;;;;;8.20;3.20;;;17.30;99.90;;;;;;5014294;28;20205;-78
2023/10/06 10:20:25;;;;;;;6.75;3.10;;;17.40;99.90;;;;;;4998908;28;20208;-78
2023/10/06 10:22:56;;;;;;;6.65;3.80;;;17.10;99.90;;;;;;5024327;28;20207;-80
2023/10/06 10:25:24;;;;;;;7.32;3.80;;;17.10;99.90;;;;;;4993924;28;20211;-80
2023/10/06 10:28:16;;;;;;;6.03;2.80;;;17.20;99.90;;;;;;5019413;28;20212;-79
2023/10/06 10:30:53;;;;;;;5.28;3.22;;;17.20;99.90;;;;;;5019835;28;20212;-79
2023/10/06 10:33:24;;;;;;;8.05;3.03;;;17.40;99.90;;;;;;5011251;28;20219;-79
2023/10/06 10:36:20;;;;;;;6.95;3.00;;;17.40;99.90;;;;;;5010654;28;20658;-79
2023/10/06 10:39:04;;;;;;;6.82;3.10;;;17.40;99.90;;;;;;5001708;28;20208;-79
2023/10/06 10:41:37;;;;;;;5.32;2.65;;;17.30;99.90;;;;;;5003209;28;20598;-79
2023/10/06 10:44:11;;;;;;;4.28;2.78;;;17.20;99.90;;;;;;5002694;28;20590;-79
2023/10/06 10:46:44;;;;;;;7.32;2.90;;;17.10;99.90;;;;;;5008122;28;20199;-79
2023/10/06 10:49:13;;;;;;;5.93;2.65;;;17.20;99.90;;;;;;5019175;28;20204;-79
2023/10/06 10:51:52;;;;;;;6.28;3.30;;;17.20;99.90;;;;;;5018418;28;20192;-79
2023/10/06 10:54:23;;;;;;;3.63;2.75;;;17.20;99.90;;;;;;5012966;28;20235;-79
2023/10/06 10:56:53;;;;;;;7.20;2.88;;;17.20;99.90;;;;;;5005926;28;20197;-79
2023/10/06 10:59:26;;;;;;;9.52;2.95;;;17.20;99.90;;;;;;5015450;28;20211;-79
2023/10/06 11:01:54;;;;;;;6.43;2.58;;;17.40;99.90;;;;;;5028959;28;20216;-79
2023/10/06 11:04:32;;;;;;;6.88;2.85;;;17.40;99.90;;;;;;5006678;28;20582;-79
2023/10/06 11:07:09;;;;;;;4.00;2.67;;;17.50;99.90;;;;;;5027108;28;20196;-79
2023/10/06 11:09:41;;;;;;;7.00;3.10;;;17.50;99.90;;;;;;4993849;28;20204;-79
2023/10/06 11:12:21;;;;;;;8.52;2.53;;;17.50;99.90;;;;;;5000793;28;20196;-79
2023/10/06 11:14:52;;;;;;;8.45;3.03;;;17.60;99.90;;;;;;5015532;28;20226;-79
2023/10/06 11:17:21;;;;;;;4.50;2.78;;;17.90;99.90;;;;;;5023519;28;20208;-79
2023/10/06 11:19:59;;;;;;;10.30;3.22;;;18.10;99.90;;;;;;5001897;28;20212;-79
2023/10/06 11:22:28;;;;;;;5.25;2.80;;;18.20;99.90;;;;;;5014509;28;20212;-79
2023/10/06 11:24:59;;;;;;;5.78;2.88;;;18.30;99.90;;;;;;5018674;28;20232;-79
2023/10/06 11:27:28;;;;;;;7.43;2.58;;;18.50;99.90;;;;;;5011112;28;20208;-79
2023/10/06 11:29:57;;;;;;;6.22;3.08;;;18.70;99.90;;;;;;4996859;28;20200;-79
2023/10/06 11:32:28;;;;;;;9.07;2.90;;;18.80;99.90;;;;;;5027196;28;20207;-79
2023/10/06 11:34:56;;;;;;;5.57;2.85;;;19.00;99.90;;;;;;5032396;28;20219;-79
2023/10/06 11:37:24;;;;;;;7.88;2.75;;;19.00;99.90;;;;;;5046612;28;20184;-79
2023/10/06 11:39:53;;;;;;;7.68;2.85;;;19.10;99.90;;;;;;5019538;28;20201;-79
2023/10/06 11:42:38;;;;;;;6.93;3.53;;;18.90;99.90;;;;;;5039744;28;20231;-79
2023/10/06 11:45:11;;;;;;;8.45;2.85;;;19.20;99.90;;;;;;5028188;28;20227;-79
2023/10/06 11:47:40;;;;;;;4.68;2.50;;;19.40;99.90;;;;;;4992607;28;20207;-79
2023/10/06 11:50:22;;;;;;;5.28;2.80;;;19.50;99.90;;;;;;5007631;28;20200;-79
2023/10/06 11:52:50;;;;;;;5.07;2.30;;;19.60;99.90;;;;;;4988511;28;20204;-79
2023/10/06 11:55:26;;;;;;;5.07;2.75;;;19.70;99.90;;;;;;4993485;28;20243;-79
2023/10/06 11:57:58;;;;;;;5.97;3.17;;;20.00;99.90;;;;;;4991982;28;20203;-79
2023/10/06 12:00:40;;;;;;;6.68;2.92;;;20.10;99.90;;;;;;5008412;28;20271;-79
2023/10/06 12:03:16;;;;;;;6.93;2.75;;;19.90;99.80;;;;;;5009906;28;20636;-78
2023/10/06 12:05:56;;;;;;;6.47;2.65;;;19.80;99.90;;;;;;5000066;28;20202;-79
2023/10/06 12:08:24;;;;;;;5.63;2.83;;;19.80;99.90;;;;;;5011661;28;20203;-79
2023/10/06 12:10:52;;;;;;;5.38;2.53;;;20.00;99.40;;;;;;4996709;28;20199;-79
2023/10/06 12:13:26;;;;;;;6.93;2.70;;;20.10;99.20;;;;;;4996127;28;20280;-79
2023/10/06 12:15:53;;;;;;;5.82;3.00;;;20.10;99.00;;;;;;4993314;28;20192;-79
2023/10/06 12:18:22;;;;;;;5.88;2.60;;;19.80;99.90;;;;;;5014952;28;20203;-79
2023/10/06 12:20:51;;;;;;;5.18;2.63;;;19.70;99.90;;;;;;4994402;28;20207;-78
2023/10/06 12:23:20;;;;;;;6.75;3.00;;;19.60;99.90;;;;;;4991190;28;20228;-79
2023/10/06 12:25:47;;;;;;;5.75;3.20;;;19.60;99.90;;;;;;5001418;28;20193;-79
2023/10/06 12:28:16;;;;;;;6.72;3.25;;;19.30;99.90;;;;;;5015049;28;20662;-78
2023/10/06 12:30:43;;;;;;;5.30;2.45;;;19.40;99.90;;;;;;5015872;28;20212;-78
2023/10/06 12:33:15;;;;;;;5.10;2.72;;;19.50;99.90;;;;;;5015053;28;20276;-79
2023/10/06 12:35:42;;;;;;;6.47;2.92;;;19.60;99.90;;;;;;4990367;28;20196;-78
2023/10/06 12:38:14;;;;;;;7.10;2.65;;;20.20;99.80;;;;;;4998301;28;20211;-79
2023/10/06 12:40:47;;;;;;;7.63;2.63;;;20.60;99.20;;;;;;4999243;28;20207;-79
2023/10/06 12:43:36;;;;;;;4.47;2.97;;;20.50;98.60;;;;;;4996857;28;20212;-78
2023/10/06 12:46:04;;;;;;;5.10;2.92;;;20.30;98.00;;;;;;4993341;28;20207;-77
2023/10/06 12:48:38;;;;;;;4.82;2.92;;;20.40;98.40;;;;;;4994663;28;20216;-80
2023/10/06 12:51:06;;;;;;;7.75;3.10;;;20.30;98.00;;;;;;5018779;28;20204;-79
2023/10/06 12:53:34;;;;;;;8.05;3.15;;;20.20;98.00;;;;;;5000318;28;20220;-79
2023/10/06 12:56:04;;;;;;;6.78;3.10;;;20.60;98.40;;;;;;5017659;28;20211;-80
2023/10/06 12:58:31;;;;;;;4.70;2.30;;;20.90;97.40;;;;;;5008920;28;20212;-79
2023/10/06 13:00:59;;;;;;;8.02;2.60;;;21.00;97.20;;;;;;5005237;28;20208;-80
2023/10/06 13:03:27;;;;;;;5.07;2.60;;;22.10;96.30;;;;;;5030462;28;20242;-79
2023/10/06 13:05:55;;;;;;;5.13;2.88;;;21.30;96.20;;;;;;5011808;28;20212;-79
2023/10/06 13:08:24;;;;;;;6.25;3.35;;;21.20;96.40;;;;;;5012321;28;20207;-80